createdAt,value
2018-07-14T00:00:55.717Z,5.57
2018-07-14T00:03:26.685Z,5.90
2018-07-14T00:05:56.696Z,5.20
2018-07-14T00:08:26.654Z,4.90
2018-07-14T00:10:56.650Z,4.53
2018-07-14T00:13:26.584Z,5.20
2018-07-14T00:15:56.524Z,5.40
2018-07-14T00:18:26.584Z,4.57
2018-07-14T00:20:56.472Z,4.80
2018-07-14T00:23:26.383Z,4.70
2018-07-14T00:26:01.637Z,4.87
2018-07-14T00:28:33.343Z,4.80
2018-07-14T00:31:03.277Z,4.97
2018-07-14T00:33:33.303Z,5.47
2018-07-14T00:36:03.211Z,5.23
2018-07-14T00:38:33.070Z,4.77
2018-07-14T00:41:02.976Z,4.10
2018-07-14T00:43:32.852Z,4.90
2018-07-14T00:46:02.735Z,4.53
2018-07-14T00:48:32.539Z,4.60
2018-07-14T00:51:02.495Z,4.40
2018-07-14T00:53:32.391Z,4.30
2018-07-14T00:56:02.348Z,4.30
2018-07-14T00:58:32.307Z,4.13
2018-07-14T01:01:02.273Z,4.40
2018-07-14T01:03:32.112Z,4.30
2018-07-14T01:06:01.944Z,4.37
2018-07-14T01:08:31.843Z,4.00
2018-07-14T01:11:01.743Z,4.20
2018-07-14T01:13:31.708Z,3.87
2018-07-14T01:16:01.591Z,4.50
2018-07-14T01:18:31.478Z,4.40
2018-07-14T01:21:01.359Z,3.90
2018-07-14T01:23:31.237Z,4.00
2018-07-14T01:26:01.107Z,4.23
2018-07-14T01:28:31.022Z,4.33
2018-07-14T01:31:00.916Z,4.10
2018-07-14T01:33:30.971Z,4.03
2018-07-14T01:36:00.988Z,4.10
2018-07-14T01:38:31.034Z,4.37
2018-07-14T01:41:00.957Z,4.10
2018-07-14T01:43:30.859Z,4.17
2018-07-14T01:46:00.735Z,4.50
2018-07-14T01:48:30.741Z,4.30
2018-07-14T01:51:00.641Z,4.13
2018-07-14T01:53:30.478Z,4.20
2018-07-14T01:56:00.576Z,4.20
2018-07-14T01:58:30.561Z,4.33
2018-07-14T02:01:00.420Z,4.60
2018-07-14T02:03:30.361Z,4.57
2018-07-14T02:06:00.171Z,4.90
2018-07-14T02:08:33.113Z,4.63
2018-07-14T02:11:03.010Z,4.53
2018-07-14T02:13:32.868Z,5.03
2018-07-14T02:16:02.985Z,4.33
2018-07-14T02:18:32.846Z,4.60
2018-07-14T02:21:02.626Z,5.13
2018-07-14T02:23:32.485Z,4.63
2018-07-14T02:26:02.310Z,4.30
2018-07-14T02:28:32.071Z,5.20
2018-07-14T02:31:01.854Z,4.80
2018-07-14T02:33:31.740Z,4.87
2018-07-14T02:36:01.652Z,4.63
2018-07-14T02:38:31.683Z,4.43
2018-07-14T02:41:01.578Z,4.93
2018-07-14T02:43:31.511Z,4.70
2018-07-14T02:46:01.491Z,4.73
2018-07-14T02:48:31.333Z,4.33
2018-07-14T02:51:01.164Z,4.80
2018-07-14T02:53:31.000Z,5.27
2018-07-14T02:56:00.996Z,4.43
2018-07-14T02:58:31.383Z,4.40
2018-07-14T03:01:01.288Z,4.30
2018-07-14T03:03:31.136Z,4.63
2018-07-14T03:06:00.996Z,4.70
2018-07-14T03:08:30.844Z,4.90
2018-07-14T03:11:00.639Z,4.60
2018-07-14T03:13:30.719Z,4.93
2018-07-14T03:16:00.632Z,5.50
2018-07-14T03:18:30.459Z,4.57
2018-07-14T03:21:00.365Z,5.00
2018-07-14T03:23:30.397Z,4.83
2018-07-14T03:26:00.251Z,5.13
2018-07-14T03:28:30.179Z,4.57
2018-07-14T03:31:00.161Z,5.00
2018-07-14T03:33:30.083Z,3.97
2018-07-14T03:35:59.833Z,4.93
2018-07-14T03:38:29.672Z,4.47
2018-07-14T03:40:59.512Z,4.83
2018-07-14T03:43:29.491Z,4.30
2018-07-14T03:45:59.316Z,4.23
2018-07-14T03:48:29.148Z,4.67
2018-07-14T03:50:59.129Z,4.07
2018-07-14T03:53:29.019Z,4.53
2018-07-14T03:55:58.955Z,4.47
2018-07-14T03:58:28.834Z,4.40
2018-07-14T04:00:58.824Z,4.57
2018-07-14T04:03:28.692Z,4.50
2018-07-14T04:05:58.548Z,4.97
2018-07-14T04:08:28.427Z,5.00
2018-07-14T04:10:58.270Z,4.50
2018-07-14T04:13:28.047Z,4.67
2018-07-14T04:15:57.973Z,4.47
2018-07-14T04:18:27.836Z,4.97
2018-07-14T04:20:57.754Z,5.27
2018-07-14T04:23:27.717Z,4.43
2018-07-14T04:25:57.696Z,4.80
2018-07-14T04:28:27.624Z,4.77
2018-07-14T04:30:57.582Z,4.70
2018-07-14T04:33:27.559Z,4.80
2018-07-14T04:35:57.447Z,4.97
2018-07-14T04:38:27.336Z,4.40
2018-07-14T04:40:57.263Z,4.70
2018-07-14T04:43:27.300Z,4.77
2018-07-14T04:45:57.175Z,5.00
2018-07-14T04:48:27.011Z,4.10
2018-07-14T04:50:56.911Z,5.00
2018-07-14T04:53:26.820Z,5.23
2018-07-14T04:55:56.717Z,5.20
2018-07-14T04:58:26.582Z,5.03
2018-07-14T05:00:56.408Z,4.87
2018-07-14T05:03:26.360Z,4.97
2018-07-14T05:05:56.679Z,5.17
2018-07-14T05:08:26.512Z,5.10
2018-07-14T05:10:56.356Z,5.20
2018-07-14T05:13:26.147Z,5.40
2018-07-14T05:15:55.932Z,4.80
2018-07-14T05:18:25.911Z,4.83
2018-07-14T05:20:55.779Z,5.57
2018-07-14T05:23:25.644Z,5.60
2018-07-14T05:25:55.509Z,5.03
2018-07-14T05:28:25.335Z,5.30
2018-07-14T05:30:55.128Z,4.53
2018-07-14T05:33:25.008Z,5.10
2018-07-14T05:35:55.020Z,5.23
2018-07-14T05:38:24.978Z,4.80
2018-07-14T05:40:54.936Z,5.00
2018-07-14T05:43:24.748Z,4.40
2018-07-14T05:45:54.556Z,4.87
2018-07-14T05:48:24.386Z,4.60
2018-07-14T05:50:54.336Z,5.40
2018-07-14T05:53:24.238Z,4.43
2018-07-14T05:55:54.194Z,4.63
2018-07-14T05:58:24.035Z,4.57
2018-07-14T06:00:53.883Z,4.33
2018-07-14T06:03:23.693Z,4.70
2018-07-14T06:05:53.792Z,4.47
2018-07-14T06:08:23.794Z,4.10
2018-07-14T06:10:53.794Z,5.13
2018-07-14T06:13:23.777Z,5.43
2018-07-14T06:15:53.808Z,6.10
2018-07-14T06:18:23.629Z,5.80
2018-07-14T06:20:53.492Z,4.70
2018-07-14T06:23:23.485Z,3.57
2018-07-14T06:25:53.401Z,4.80
2018-07-14T06:28:23.294Z,4.17
2018-07-14T06:30:53.114Z,4.20
2018-07-14T06:33:23.039Z,4.70
2018-07-14T06:35:52.989Z,3.87
2018-07-14T06:38:23.010Z,3.83
2018-07-14T06:40:53.072Z,5.90
2018-07-14T06:43:23.064Z,4.23
2018-07-14T06:45:53.867Z,3.77
2018-07-14T06:48:23.754Z,3.83
2018-07-14T06:50:53.712Z,4.50
2018-07-14T06:53:23.539Z,4.57
2018-07-14T06:55:53.576Z,4.33
2018-07-14T06:58:23.416Z,3.77
2018-07-14T07:00:53.289Z,4.13
2018-07-14T07:03:23.146Z,3.73
2018-07-14T07:05:52.981Z,3.63
2018-07-14T07:08:22.844Z,3.90
2018-07-14T07:10:52.795Z,3.73
2018-07-14T07:13:22.807Z,3.93
2018-07-14T07:15:52.671Z,4.13
2018-07-14T07:18:22.612Z,4.03
2018-07-14T07:20:52.417Z,4.17
2018-07-14T07:23:22.249Z,3.20
2018-07-14T07:25:52.106Z,3.70
2018-07-14T07:28:21.940Z,3.53
2018-07-14T07:30:51.859Z,3.47
2018-07-14T07:33:21.683Z,4.27
2018-07-14T07:35:51.567Z,3.60
2018-07-14T07:38:21.455Z,4.27
2018-07-14T07:40:51.383Z,4.10
2018-07-14T07:43:21.264Z,4.40
2018-07-14T07:45:51.070Z,4.23
2018-07-14T07:48:20.848Z,4.30
2018-07-14T07:50:50.782Z,4.77
2018-07-14T07:53:20.739Z,4.30
2018-07-14T07:55:50.580Z,4.23
2018-07-14T07:58:20.327Z,4.57
2018-07-14T08:00:50.268Z,3.37
2018-07-14T08:03:20.288Z,3.07
2018-07-14T08:05:50.264Z,3.63
2018-07-14T08:08:20.159Z,3.70
2018-07-14T08:10:49.983Z,4.10
2018-07-14T08:13:19.832Z,3.37
2018-07-14T08:15:49.690Z,3.77
2018-07-14T08:18:19.531Z,3.23
2018-07-14T08:20:49.499Z,3.40
2018-07-14T08:23:19.362Z,3.47
2018-07-14T08:25:49.247Z,3.60
2018-07-14T08:28:19.079Z,5.40
2018-07-14T08:30:49.019Z,3.87
2018-07-14T08:33:18.892Z,4.27
2018-07-14T08:35:48.716Z,4.27
2018-07-14T08:38:18.539Z,4.73
2018-07-14T08:40:48.419Z,4.27
2018-07-14T08:43:18.320Z,4.13
2018-07-14T08:45:48.148Z,3.60
2018-07-14T08:48:18.084Z,3.90
2018-07-14T08:50:48.099Z,3.93
2018-07-14T08:53:18.112Z,5.03
2018-07-14T08:55:48.027Z,3.40
2018-07-14T08:58:18.257Z,3.17
2018-07-14T09:00:48.072Z,3.20
2018-07-14T09:03:17.937Z,3.70
2018-07-14T09:05:47.819Z,3.50
2018-07-14T09:08:17.801Z,3.17
2018-07-14T09:10:47.615Z,3.77
2018-07-14T09:13:17.463Z,4.47
2018-07-14T09:15:47.416Z,3.90
2018-07-14T09:18:17.272Z,3.33
2018-07-14T09:20:47.338Z,3.30
2018-07-14T09:23:17.268Z,3.70
2018-07-14T09:25:47.555Z,3.30
2018-07-14T09:28:17.597Z,3.80
2018-07-14T09:30:47.553Z,3.50
2018-07-14T09:33:17.479Z,3.30
2018-07-14T09:35:47.291Z,3.10
2018-07-14T09:38:17.153Z,3.53
2018-07-14T09:40:47.112Z,3.43
2018-07-14T09:43:16.976Z,3.20
2018-07-14T09:45:46.748Z,3.13
2018-07-14T09:48:16.723Z,3.50
2018-07-14T09:50:46.780Z,3.63
2018-07-14T09:53:16.736Z,4.77
2018-07-14T09:55:46.707Z,3.80
2018-07-14T09:58:16.519Z,4.50
2018-07-14T10:00:51.475Z,3.17
2018-07-14T10:03:21.304Z,4.27
2018-07-14T10:05:51.076Z,3.63
2018-07-14T10:08:20.856Z,3.60
2018-07-14T10:10:50.699Z,3.53
2018-07-14T10:13:20.761Z,2.90
2018-07-14T10:15:50.549Z,3.13
2018-07-14T10:18:20.481Z,3.70
2018-07-14T10:20:50.380Z,5.43
2018-07-14T10:23:20.463Z,4.50
2018-07-14T10:25:50.514Z,4.10
2018-07-14T10:28:20.203Z,3.43
2018-07-14T10:30:50.074Z,3.27
2018-07-14T10:33:19.904Z,3.07
2018-07-14T10:35:49.817Z,3.30
2018-07-14T10:38:19.783Z,3.43
2018-07-14T10:40:49.676Z,3.70
2018-07-14T10:43:20.107Z,4.57
2018-07-14T10:45:49.939Z,3.77
2018-07-14T10:48:19.854Z,2.70
2018-07-14T10:50:49.650Z,3.37
2018-07-14T10:53:19.604Z,3.40
2018-07-14T10:55:49.426Z,6.70
2018-07-14T10:58:19.224Z,3.83
2018-07-14T11:00:49.071Z,4.53
2018-07-14T11:03:18.979Z,3.70
2018-07-14T11:05:48.799Z,3.80
2018-07-14T11:08:18.652Z,4.03
2018-07-14T11:10:48.477Z,4.23
2018-07-14T11:13:18.302Z,4.47
2018-07-14T11:15:48.119Z,5.43
2018-07-14T11:18:17.985Z,4.40
2018-07-14T11:20:47.801Z,4.07
2018-07-14T11:23:17.684Z,3.30
2018-07-14T11:25:47.544Z,3.10
2018-07-14T11:28:17.295Z,3.70
2018-07-14T11:30:47.135Z,3.53
2018-07-14T11:33:17.003Z,3.70
2018-07-14T11:35:46.818Z,3.77
2018-07-14T11:38:16.643Z,4.97
2018-07-14T11:40:46.503Z,3.10
2018-07-14T11:43:16.387Z,3.77
2018-07-14T11:45:46.402Z,3.57
2018-07-14T11:48:16.253Z,2.97
2018-07-14T11:50:46.096Z,3.67
2018-07-14T11:53:16.020Z,4.97
2018-07-14T11:55:45.860Z,3.57
2018-07-14T11:58:15.888Z,3.50
2018-07-14T12:00:45.702Z,4.43
2018-07-14T12:03:15.650Z,4.50
2018-07-14T12:05:45.492Z,3.87
2018-07-14T12:08:15.411Z,3.53
2018-07-14T12:10:45.199Z,3.50
2018-07-14T12:13:15.033Z,3.67
2018-07-14T12:15:44.856Z,4.00
2018-07-14T12:18:14.708Z,4.10
2018-07-14T12:20:44.582Z,4.13
2018-07-14T12:23:14.415Z,3.50
2018-07-14T12:25:44.315Z,3.60
2018-07-14T12:28:14.240Z,4.17
2018-07-14T12:30:44.246Z,2.97
2018-07-14T12:33:14.116Z,3.63
2018-07-14T12:35:43.979Z,3.80
2018-07-14T12:38:13.903Z,3.80
2018-07-14T12:40:43.749Z,3.77
2018-07-14T12:43:13.749Z,3.93
2018-07-14T12:45:43.743Z,4.07
2018-07-14T12:48:13.615Z,4.10
2018-07-14T12:50:43.581Z,4.60
2018-07-14T12:53:13.426Z,3.90
2018-07-14T12:55:43.369Z,4.50
2018-07-14T12:58:13.407Z,4.47
2018-07-14T13:00:43.360Z,3.57
2018-07-14T13:03:13.163Z,3.53
2018-07-14T13:05:43.063Z,3.70
2018-07-14T13:08:12.892Z,3.27
2018-07-14T13:10:42.725Z,3.70
2018-07-14T13:13:12.646Z,3.50
2018-07-14T13:15:42.550Z,4.33
2018-07-14T13:18:12.391Z,4.40
2018-07-14T13:20:42.215Z,4.97
2018-07-14T13:23:12.104Z,4.07
2018-07-14T13:25:42.038Z,4.30
2018-07-14T13:28:12.125Z,5.53
2018-07-14T13:30:41.947Z,4.90
2018-07-14T13:33:11.930Z,4.77
2018-07-14T13:35:42.070Z,4.57
2018-07-14T13:38:11.895Z,4.70
2018-07-14T13:40:41.697Z,4.63
2018-07-14T13:43:11.640Z,4.43
2018-07-14T13:45:41.651Z,4.73
2018-07-14T13:48:11.524Z,4.00
2018-07-14T13:50:41.488Z,5.03
2018-07-14T13:53:11.411Z,4.43
2018-07-14T13:55:41.321Z,4.00
2018-07-14T13:58:11.184Z,4.57
2018-07-14T14:00:41.073Z,4.60
2018-07-14T14:03:10.936Z,4.10
2018-07-14T14:05:40.826Z,5.00
2018-07-14T14:08:10.756Z,3.47
2018-07-14T14:10:40.687Z,5.00
2018-07-14T14:13:10.585Z,5.60
2018-07-14T14:15:40.610Z,4.90
2018-07-14T14:18:10.480Z,4.93
2018-07-14T14:20:40.444Z,5.30
2018-07-14T14:23:10.283Z,4.97
2018-07-14T14:25:40.257Z,5.13
2018-07-14T14:28:10.198Z,4.93
2018-07-14T14:30:40.145Z,4.80
2018-07-14T14:33:10.204Z,5.20
2018-07-14T14:35:40.043Z,4.80
2018-07-14T14:38:09.931Z,5.00
2018-07-14T14:40:39.944Z,4.40
2018-07-14T14:43:09.715Z,5.07
2018-07-14T14:45:39.619Z,4.97
2018-07-14T14:48:09.592Z,3.77
2018-07-14T14:50:39.585Z,4.27
2018-07-14T14:53:09.483Z,4.30
2018-07-14T14:55:39.467Z,4.83
2018-07-14T14:58:09.813Z,4.83
2018-07-14T15:00:39.722Z,4.93
2018-07-14T15:03:09.624Z,4.83
2018-07-14T15:05:39.386Z,3.80
2018-07-14T15:08:09.246Z,4.87
2018-07-14T15:10:39.128Z,4.53
2018-07-14T15:13:09.003Z,4.73
2018-07-14T15:15:38.923Z,4.13
2018-07-14T15:18:08.707Z,5.00
2018-07-14T15:20:38.543Z,4.60
2018-07-14T15:23:08.356Z,4.40
2018-07-14T15:25:38.334Z,4.50
2018-07-14T15:28:08.251Z,3.93
2018-07-14T15:30:38.231Z,4.20
2018-07-14T15:33:08.344Z,3.93
2018-07-14T15:35:38.355Z,4.60
2018-07-14T15:38:08.204Z,4.43
2018-07-14T15:40:38.141Z,4.63
2018-07-14T15:43:08.011Z,4.30
2018-07-14T15:45:37.971Z,5.00
2018-07-14T15:48:08.030Z,4.90
2018-07-14T15:50:37.912Z,4.50
2018-07-14T15:53:07.879Z,4.97
2018-07-14T15:55:37.907Z,3.87
2018-07-14T15:58:07.828Z,4.43
2018-07-14T16:00:37.667Z,5.30
2018-07-14T16:03:07.556Z,4.50
2018-07-14T16:05:37.565Z,4.07
2018-07-14T16:08:07.561Z,3.83
2018-07-14T16:10:37.512Z,4.73
2018-07-14T16:13:07.493Z,4.97
2018-07-14T16:15:37.311Z,4.13
2018-07-14T16:18:07.344Z,4.80
2018-07-14T16:20:37.223Z,3.80
2018-07-14T16:23:07.007Z,3.70
2018-07-14T16:25:36.861Z,4.40
2018-07-14T16:28:06.768Z,3.77
2018-07-14T16:30:36.599Z,4.00
2018-07-14T16:33:06.476Z,3.80
2018-07-14T16:35:36.366Z,3.50
2018-07-14T16:38:06.346Z,5.40
2018-07-14T16:40:36.255Z,4.30
2018-07-14T16:43:06.252Z,4.47
2018-07-14T16:45:36.196Z,4.57
2018-07-14T16:48:06.509Z,4.27
2018-07-14T16:50:36.424Z,4.47
2018-07-14T16:53:06.305Z,4.27
2018-07-14T16:55:36.216Z,3.83
2018-07-14T16:58:06.172Z,3.73
2018-07-14T17:00:36.091Z,3.60
2018-07-14T17:03:05.978Z,3.90
2018-07-14T17:05:35.868Z,3.80
2018-07-14T17:08:05.648Z,4.03
2018-07-14T17:10:35.567Z,4.50
2018-07-14T17:13:05.606Z,4.00
2018-07-14T17:15:35.543Z,4.17
2018-07-14T17:18:05.401Z,3.83
2018-07-14T17:20:35.424Z,4.33
2018-07-14T17:23:05.343Z,5.10
2018-07-14T17:25:35.147Z,5.00
2018-07-14T17:28:05.156Z,4.57
2018-07-14T17:30:35.017Z,4.50
2018-07-14T17:33:04.815Z,5.77
2018-07-14T17:35:34.711Z,4.90
2018-07-14T17:38:04.594Z,6.07
2018-07-14T17:40:34.550Z,4.80
2018-07-14T17:43:04.402Z,4.87
2018-07-14T17:45:34.760Z,4.53
2018-07-14T17:48:04.618Z,4.83
2018-07-14T17:50:34.640Z,5.73
2018-07-14T17:53:04.512Z,6.37
2018-07-14T17:55:34.476Z,5.37
2018-07-14T17:58:04.387Z,6.07
2018-07-14T18:00:34.383Z,5.63
2018-07-14T18:03:04.373Z,6.00
2018-07-14T18:05:34.444Z,6.70
2018-07-14T18:08:04.333Z,7.07
2018-07-14T18:10:34.253Z,5.07
2018-07-14T18:13:04.149Z,6.43
2018-07-14T18:15:34.068Z,6.47
2018-07-14T18:18:04.049Z,7.67
2018-07-14T18:20:34.086Z,5.97
2018-07-14T18:23:03.973Z,6.20
2018-07-14T18:25:33.924Z,6.17
2018-07-14T18:28:03.912Z,6.50
2018-07-14T18:30:33.804Z,6.03
2018-07-14T18:33:03.696Z,6.90
2018-07-14T18:35:33.608Z,6.90
2018-07-14T18:38:03.533Z,7.10
2018-07-14T18:40:33.397Z,6.97
2018-07-14T18:43:03.221Z,6.50
2018-07-14T18:45:33.151Z,6.50
2018-07-14T18:48:03.117Z,5.77
2018-07-14T18:50:33.135Z,5.63
2018-07-14T18:53:03.037Z,5.90
2018-07-14T18:55:33.021Z,7.70
2018-07-14T18:58:02.815Z,5.93
2018-07-14T19:00:32.805Z,6.20
2018-07-14T19:03:02.609Z,5.50
2018-07-14T19:05:32.508Z,6.53
2018-07-14T19:08:02.460Z,6.50
2018-07-14T19:10:32.426Z,6.77
2018-07-14T19:13:02.344Z,6.90
2018-07-14T19:15:32.388Z,5.93
2018-07-14T19:18:02.203Z,5.83
2018-07-14T19:20:32.112Z,5.60
2018-07-14T19:23:02.071Z,6.20
2018-07-14T19:25:32.011Z,7.47
2018-07-14T19:28:01.917Z,7.17
2018-07-14T19:30:31.839Z,7.10
2018-07-14T19:33:01.827Z,7.73
2018-07-14T19:35:31.728Z,8.63
2018-07-14T19:38:04.422Z,7.57
2018-07-14T19:40:34.385Z,7.30
2018-07-14T19:43:04.244Z,6.47
2018-07-14T19:45:34.177Z,6.93
2018-07-14T19:48:04.036Z,9.07
2018-07-14T19:50:33.904Z,7.20
2018-07-14T19:53:03.856Z,6.43
2018-07-14T19:55:35.666Z,7.73
2018-07-14T19:58:03.781Z,7.70
2018-07-14T20:00:33.712Z,8.27
2018-07-14T20:03:03.591Z,6.97
2018-07-14T20:05:33.500Z,7.40
2018-07-14T20:08:03.317Z,8.67
2018-07-14T20:10:33.171Z,7.87
2018-07-14T20:13:03.148Z,7.37
2018-07-14T20:15:33.094Z,7.73
2018-07-14T20:18:03.158Z,7.63
2018-07-14T20:20:33.045Z,7.00
2018-07-14T20:23:02.876Z,7.17
2018-07-14T20:25:33.115Z,7.23
2018-07-14T20:28:03.021Z,7.90
2018-07-14T20:30:32.942Z,7.43
2018-07-14T20:33:02.704Z,7.73
2018-07-14T20:35:32.500Z,7.40
2018-07-14T20:38:02.396Z,7.33
2018-07-14T20:40:32.557Z,7.53
2018-07-14T20:43:02.485Z,8.57
2018-07-14T20:45:32.385Z,7.80
2018-07-14T20:48:02.158Z,8.20
2018-07-14T20:50:32.646Z,8.00
2018-07-14T20:53:02.423Z,8.20
2018-07-14T20:55:32.321Z,8.23
2018-07-14T20:58:02.308Z,7.50
2018-07-14T21:00:32.150Z,8.40
2018-07-14T21:03:02.013Z,7.97
2018-07-14T21:05:31.916Z,7.83
2018-07-14T21:08:02.139Z,8.73
2018-07-14T21:10:32.067Z,7.70
2018-07-14T21:13:01.905Z,8.23
2018-07-14T21:15:31.742Z,7.50
2018-07-14T21:18:01.702Z,8.40
2018-07-14T21:20:31.629Z,7.83
2018-07-14T21:23:01.509Z,7.80
2018-07-14T21:25:31.300Z,8.03
2018-07-14T21:28:01.382Z,7.80
2018-07-14T21:30:31.270Z,7.93
2018-07-14T21:33:01.168Z,8.87
2018-07-14T21:35:31.037Z,8.33
2018-07-14T21:38:00.900Z,7.77
2018-07-14T21:40:30.951Z,7.40
2018-07-14T21:43:00.849Z,7.87
2018-07-14T21:45:30.724Z,7.90
2018-07-14T21:48:00.556Z,7.33
2018-07-14T21:50:30.352Z,8.57
2018-07-14T21:53:00.231Z,8.13
2018-07-14T21:55:30.184Z,8.47
2018-07-14T21:58:00.113Z,8.83
2018-07-14T22:00:35.359Z,8.23
2018-07-14T22:03:06.451Z,8.33
2018-07-14T22:05:36.274Z,8.23
2018-07-14T22:08:06.154Z,8.03
2018-07-14T22:10:35.991Z,7.40
2018-07-14T22:13:05.825Z,8.30
2018-07-14T22:15:35.770Z,7.83
2018-07-14T22:18:05.858Z,8.53
2018-07-14T22:20:35.824Z,8.10
2018-07-14T22:23:05.684Z,8.00
2018-07-14T22:25:35.601Z,8.07
2018-07-14T22:28:05.740Z,7.17
2018-07-14T22:30:35.684Z,8.03
2018-07-14T22:33:05.603Z,7.70
2018-07-14T22:35:35.380Z,7.70
2018-07-14T22:38:05.312Z,7.07
2018-07-14T22:40:35.335Z,6.67
2018-07-14T22:43:05.479Z,7.47
2018-07-14T22:45:35.297Z,7.00
2018-07-14T22:48:05.500Z,7.73
2018-07-14T22:50:35.332Z,6.80
2018-07-14T22:53:05.244Z,6.90
2018-07-14T22:55:35.162Z,7.23
2018-07-14T22:58:05.016Z,6.20
2018-07-14T23:00:34.899Z,6.80
2018-07-14T23:03:04.767Z,7.17
2018-07-14T23:05:34.697Z,6.10
2018-07-14T23:08:05.616Z,6.27
2018-07-14T23:10:35.594Z,6.57
2018-07-14T23:13:05.455Z,6.47
2018-07-14T23:15:35.285Z,5.63
2018-07-14T23:18:05.248Z,5.80
2018-07-14T23:20:35.203Z,5.83
2018-07-14T23:23:05.016Z,5.63
2018-07-14T23:25:34.904Z,6.00
2018-07-14T23:28:04.735Z,5.80
2018-07-14T23:30:34.568Z,6.00
2018-07-14T23:33:04.506Z,6.27
2018-07-14T23:35:34.404Z,5.57
2018-07-14T23:38:04.345Z,5.57
2018-07-14T23:40:34.466Z,5.90
2018-07-14T23:43:04.366Z,4.93
2018-07-14T23:45:34.329Z,5.20
2018-07-14T23:48:04.199Z,5.70
2018-07-14T23:50:34.245Z,5.03
2018-07-14T23:53:04.096Z,5.47
2018-07-14T23:55:33.878Z,4.90
2018-07-14T23:58:03.662Z,5.17
